sensor_id;sensor_type;location;lat;lon;timestamp;P1;durP1;ratioP1;P2;durP2;ratioP2
67861;SDS011;54665;51.462;6.698;2023-04-25T00:01:55;12.37;;;3.07;;
67861;SDS011;54665;51.462;6.698;2023-04-25T00:04:21;14.70;;;3.30;;
67861;SDS011;54665;51.462;6.698;2023-04-25T00:06:48;11.23;;;3.10;;
67861;SDS011;54665;51.462;6.698;2023-04-25T00:09:13;9.90;;;3.00;;
67861;SDS011;54665;51.462;6.698;2023-04-25T00:11:39;10.07;;;2.63;;
67861;SDS011;54665;51.462;6.698;2023-04-25T00:14:05;9.68;;;2.92;;
67861;SDS011;54665;51.462;6.698;2023-04-25T00:16:31;12.00;;;2.92;;
67861;SDS011;54665;51.462;6.698;2023-04-25T00:18:59;11.15;;;2.92;;
67861;SDS011;54665;51.462;6.698;2023-04-25T00:21:26;8.70;;;2.75;;
67861;SDS011;54665;51.462;6.698;2023-04-25T00:23:53;11.73;;;2.90;;
67861;SDS011;54665;51.462;6.698;2023-04-25T00:26:18;11.27;;;2.97;;
67861;SDS011;54665;51.462;6.698;2023-04-25T00:28:46;10.57;;;3.10;;
67861;SDS011;54665;51.462;6.698;2023-04-25T00:31:11;11.07;;;3.03;;
67861;SDS011;54665;51.462;6.698;2023-04-25T00:33:37;13.20;;;3.30;;
67861;SDS011;54665;51.462;6.698;2023-04-25T00:36:02;12.63;;;3.20;;
67861;SDS011;54665;51.462;6.698;2023-04-25T00:38:28;15.33;;;3.57;;
67861;SDS011;54665;51.462;6.698;2023-04-25T00:40:53;13.60;;;3.20;;
67861;SDS011;54665;51.462;6.698;2023-04-25T00:43:20;8.75;;;3.00;;
67861;SDS011;54665;51.462;6.698;2023-04-25T00:45:46;9.75;;;3.05;;
67861;SDS011;54665;51.462;6.698;2023-04-25T00:48:16;16.02;;;3.53;;
67861;SDS011;54665;51.462;6.698;2023-04-25T00:50:43;11.83;;;3.27;;
67861;SDS011;54665;51.462;6.698;2023-04-25T00:53:16;12.70;;;3.40;;
67861;SDS011;54665;51.462;6.698;2023-04-25T00:55:41;13.43;;;3.37;;
67861;SDS011;54665;51.462;6.698;2023-04-25T00:58:06;13.23;;;3.37;;
67861;SDS011;54665;51.462;6.698;2023-04-25T01:00:32;10.05;;;3.10;;
67861;SDS011;54665;51.462;6.698;2023-04-25T01:02:57;10.57;;;3.17;;
67861;SDS011;54665;51.462;6.698;2023-04-25T01:05:23;11.82;;;3.40;;
67861;SDS011;54665;51.462;6.698;2023-04-25T01:07:49;14.33;;;3.80;;
67861;SDS011;54665;51.462;6.698;2023-04-25T01:10:14;15.63;;;3.13;;
67861;SDS011;54665;51.462;6.698;2023-04-25T01:12:40;11.63;;;3.35;;
67861;SDS011;54665;51.462;6.698;2023-04-25T01:15:06;11.30;;;3.30;;
67861;SDS011;54665;51.462;6.698;2023-04-25T01:17:31;13.73;;;3.25;;
67861;SDS011;54665;51.462;6.698;2023-04-25T01:19:58;10.32;;;2.80;;
67861;SDS011;54665;51.462;6.698;2023-04-25T01:22:24;12.67;;;3.10;;
67861;SDS011;54665;51.462;6.698;2023-04-25T01:24:50;13.32;;;3.60;;
67861;SDS011;54665;51.462;6.698;2023-04-25T01:27:16;11.47;;;3.27;;
67861;SDS011;54665;51.462;6.698;2023-04-25T01:29:42;13.63;;;3.40;;
67861;SDS011;54665;51.462;6.698;2023-04-25T01:32:07;9.55;;;3.20;;
67861;SDS011;54665;51.462;6.698;2023-04-25T01:34:33;10.03;;;3.53;;
67861;SDS011;54665;51.462;6.698;2023-04-25T01:36:59;12.50;;;3.03;;
67861;SDS011;54665;51.462;6.698;2023-04-25T01:39:27;7.33;;;2.97;;
67861;SDS011;54665;51.462;6.698;2023-04-25T01:41:53;9.85;;;3.00;;
67861;SDS011;54665;51.462;6.698;2023-04-25T01:44:18;13.73;;;3.43;;
67861;SDS011;54665;51.462;6.698;2023-04-25T01:46:44;10.65;;;3.13;;
67861;SDS011;54665;51.462;6.698;2023-04-25T01:49:10;14.13;;;2.93;;
67861;SDS011;54665;51.462;6.698;2023-04-25T01:51:36;11.35;;;3.20;;
67861;SDS011;54665;51.462;6.698;2023-04-25T01:54:01;12.27;;;3.60;;
67861;SDS011;54665;51.462;6.698;2023-04-25T01:56:31;10.02;;;3.30;;
67861;SDS011;54665;51.462;6.698;2023-04-25T01:58:59;11.48;;;3.30;;
67861;SDS011;54665;51.462;6.698;2023-04-25T02:01:31;15.70;;;4.38;;
67861;SDS011;54665;51.462;6.698;2023-04-25T02:04:11;12.37;;;3.50;;
67861;SDS011;54665;51.462;6.698;2023-04-25T02:06:39;12.02;;;3.30;;
67861;SDS011;54665;51.462;6.698;2023-04-25T02:09:05;12.45;;;3.38;;
67861;SDS011;54665;51.462;6.698;2023-04-25T02:11:31;12.67;;;3.50;;
67861;SDS011;54665;51.462;6.698;2023-04-25T02:14:15;12.68;;;3.47;;
67861;SDS011;54665;51.462;6.698;2023-04-25T02:16:47;13.23;;;3.03;;
67861;SDS011;54665;51.462;6.698;2023-04-25T02:19:12;13.67;;;3.77;;
67861;SDS011;54665;51.462;6.698;2023-04-25T02:21:37;11.83;;;3.50;;
67861;SDS011;54665;51.462;6.698;2023-04-25T02:24:03;11.47;;;3.57;;
67861;SDS011;54665;51.462;6.698;2023-04-25T02:26:29;11.70;;;3.22;;
67861;SDS011;54665;51.462;6.698;2023-04-25T02:28:55;15.25;;;3.25;;
67861;SDS011;54665;51.462;6.698;2023-04-25T02:31:22;8.15;;;2.92;;
67861;SDS011;54665;51.462;6.698;2023-04-25T02:33:47;14.23;;;3.47;;
67861;SDS011;54665;51.462;6.698;2023-04-25T02:36:13;11.48;;;3.00;;
67861;SDS011;54665;51.462;6.698;2023-04-25T02:38:40;10.35;;;3.30;;
67861;SDS011;54665;51.462;6.698;2023-04-25T02:41:05;10.77;;;2.97;;
67861;SDS011;54665;51.462;6.698;2023-04-25T02:43:31;9.77;;;2.97;;
67861;SDS011;54665;51.462;6.698;2023-04-25T02:45:56;8.40;;;1.87;;
67861;SDS011;54665;51.462;6.698;2023-04-25T02:48:22;10.48;;;3.20;;
67861;SDS011;54665;51.462;6.698;2023-04-25T02:50:47;13.90;;;3.60;;
67861;SDS011;54665;51.462;6.698;2023-04-25T02:53:13;16.17;;;3.60;;
67861;SDS011;54665;51.462;6.698;2023-04-25T02:55:44;12.03;;;3.40;;
67861;SDS011;54665;51.462;6.698;2023-04-25T02:58:10;10.63;;;3.22;;
67861;SDS011;54665;51.462;6.698;2023-04-25T03:00:42;6.10;;;2.40;;
67861;SDS011;54665;51.462;6.698;2023-04-25T03:03:08;12.63;;;4.10;;
67861;SDS011;54665;51.462;6.698;2023-04-25T03:05:33;10.57;;;3.30;;
67861;SDS011;54665;51.462;6.698;2023-04-25T03:07:59;14.83;;;3.60;;
67861;SDS011;54665;51.462;6.698;2023-04-25T03:10:25;14.50;;;3.38;;
67861;SDS011;54665;51.462;6.698;2023-04-25T03:12:52;15.95;;;3.47;;
67861;SDS011;54665;51.462;6.698;2023-04-25T03:15:18;12.98;;;3.38;;
67861;SDS011;54665;51.462;6.698;2023-04-25T03:17:43;13.87;;;2.97;;
67861;SDS011;54665;51.462;6.698;2023-04-25T03:20:09;14.33;;;3.33;;
67861;SDS011;54665;51.462;6.698;2023-04-25T03:22:35;12.98;;;3.30;;
67861;SDS011;54665;51.462;6.698;2023-04-25T03:25:01;12.87;;;3.07;;
67861;SDS011;54665;51.462;6.698;2023-04-25T03:27:26;9.18;;;2.72;;
67861;SDS011;54665;51.462;6.698;2023-04-25T03:29:52;11.97;;;3.00;;
67861;SDS011;54665;51.462;6.698;2023-04-25T03:32:18;10.07;;;2.80;;
67861;SDS011;54665;51.462;6.698;2023-04-25T03:34:45;11.32;;;3.30;;
67861;SDS011;54665;51.462;6.698;2023-04-25T03:37:10;12.23;;;3.20;;
67861;SDS011;54665;51.462;6.698;2023-04-25T03:39:37;8.32;;;2.67;;
67861;SDS011;54665;51.462;6.698;2023-04-25T03:42:05;14.05;;;3.38;;
67861;SDS011;54665;51.462;6.698;2023-04-25T03:44:30;8.73;;;3.27;;
67861;SDS011;54665;51.462;6.698;2023-04-25T03:46:56;12.77;;;3.30;;
67861;SDS011;54665;51.462;6.698;2023-04-25T03:49:24;13.63;;;3.30;;
67861;SDS011;54665;51.462;6.698;2023-04-25T03:51:59;10.73;;;3.13;;
67861;SDS011;54665;51.462;6.698;2023-04-25T03:54:26;12.02;;;3.38;;
67861;SDS011;54665;51.462;6.698;2023-04-25T03:57:00;10.00;;;3.03;;
67861;SDS011;54665;51.462;6.698;2023-04-25T03:59:28;16.00;;;3.13;;
67861;SDS011;54665;51.462;6.698;2023-04-25T04:01:54;14.67;;;3.27;;
67861;SDS011;54665;51.462;6.698;2023-04-25T04:04:20;12.25;;;3.40;;
67861;SDS011;54665;51.462;6.698;2023-04-25T04:06:46;11.20;;;3.03;;
67861;SDS011;54665;51.462;6.698;2023-04-25T04:09:16;14.98;;;3.17;;
67861;SDS011;54665;51.462;6.698;2023-04-25T04:11:43;18.42;;;3.90;;
67861;SDS011;54665;51.462;6.698;2023-04-25T04:14:08;15.90;;;3.50;;
67861;SDS011;54665;51.462;6.698;2023-04-25T04:16:37;14.43;;;4.15;;
67861;SDS011;54665;51.462;6.698;2023-04-25T04:19:03;14.33;;;3.23;;
67861;SDS011;54665;51.462;6.698;2023-04-25T04:21:29;14.02;;;3.03;;
67861;SDS011;54665;51.462;6.698;2023-04-25T04:23:55;14.30;;;3.37;;
67861;SDS011;54665;51.462;6.698;2023-04-25T04:26:21;12.68;;;3.38;;
67861;SDS011;54665;51.462;6.698;2023-04-25T04:28:56;7.43;;;2.20;;
67861;SDS011;54665;51.462;6.698;2023-04-25T04:31:31;18.80;;;3.38;;
67861;SDS011;54665;51.462;6.698;2023-04-25T04:33:58;15.03;;;3.30;;
67861;SDS011;54665;51.462;6.698;2023-04-25T04:36:23;16.85;;;3.70;;
67861;SDS011;54665;51.462;6.698;2023-04-25T04:38:51;15.93;;;3.73;;
67861;SDS011;54665;51.462;6.698;2023-04-25T04:41:29;16.33;;;3.70;;
67861;SDS011;54665;51.462;6.698;2023-04-25T04:44:09;13.38;;;3.35;;
67861;SDS011;54665;51.462;6.698;2023-04-25T04:46:48;13.93;;;3.83;;
67861;SDS011;54665;51.462;6.698;2023-04-25T04:49:33;16.38;;;3.70;;
67861;SDS011;54665;51.462;6.698;2023-04-25T04:52:17;19.63;;;4.07;;
67861;SDS011;54665;51.462;6.698;2023-04-25T04:55:03;19.65;;;4.03;;
67861;SDS011;54665;51.462;6.698;2023-04-25T04:57:53;15.90;;;3.50;;
67861;SDS011;54665;51.462;6.698;2023-04-25T05:00:37;13.65;;;3.75;;
67861;SDS011;54665;51.462;6.698;2023-04-25T05:03:31;15.85;;;3.80;;
67861;SDS011;54665;51.462;6.698;2023-04-25T05:06:09;15.23;;;3.47;;
67861;SDS011;54665;51.462;6.698;2023-04-25T05:08:53;16.30;;;4.10;;
67861;SDS011;54665;51.462;6.698;2023-04-25T05:11:51;16.23;;;3.38;;
67861;SDS011;54665;51.462;6.698;2023-04-25T05:14:25;13.40;;;3.75;;
67861;SDS011;54665;51.462;6.698;2023-04-25T05:17:05;14.90;;;3.83;;
67861;SDS011;54665;51.462;6.698;2023-04-25T05:19:56;16.30;;;3.57;;
67861;SDS011;54665;51.462;6.698;2023-04-25T05:22:51;13.93;;;3.33;;
67861;SDS011;54665;51.462;6.698;2023-04-25T05:25:21;16.35;;;3.83;;
67861;SDS011;54665;51.462;6.698;2023-04-25T05:28:10;17.58;;;4.85;;
67861;SDS011;54665;51.462;6.698;2023-04-25T05:30:48;10.93;;;3.42;;
67861;SDS011;54665;51.462;6.698;2023-04-25T05:33:17;12.53;;;3.27;;
67861;SDS011;54665;51.462;6.698;2023-04-25T05:35:44;14.82;;;3.17;;
67861;SDS011;54665;51.462;6.698;2023-04-25T05:38:10;15.05;;;3.78;;
67861;SDS011;54665;51.462;6.698;2023-04-25T05:40:59;16.65;;;3.72;;
67861;SDS011;54665;51.462;6.698;2023-04-25T05:43:43;15.57;;;3.75;;
67861;SDS011;54665;51.462;6.698;2023-04-25T05:46:30;16.13;;;3.63;;
67861;SDS011;54665;51.462;6.698;2023-04-25T05:49:11;14.07;;;3.40;;
67861;SDS011;54665;51.462;6.698;2023-04-25T05:51:59;7.07;;;2.50;;
67861;SDS011;54665;51.462;6.698;2023-04-25T05:54:45;12.20;;;3.08;;
67861;SDS011;54665;51.462;6.698;2023-04-25T05:57:23;9.30;;;2.60;;
67861;SDS011;54665;51.462;6.698;2023-04-25T05:59:50;14.73;;;3.50;;
67861;SDS011;54665;51.462;6.698;2023-04-25T06:02:16;11.98;;;2.70;;
67861;SDS011;54665;51.462;6.698;2023-04-25T06:04:42;6.43;;;2.30;;
67861;SDS011;54665;51.462;6.698;2023-04-25T06:07:08;10.07;;;2.83;;
67861;SDS011;54665;51.462;6.698;2023-04-25T06:09:35;8.27;;;1.97;;
67861;SDS011;54665;51.462;6.698;2023-04-25T06:12:00;10.25;;;2.40;;
67861;SDS011;54665;51.462;6.698;2023-04-25T06:14:27;6.57;;;2.60;;
67861;SDS011;54665;51.462;6.698;2023-04-25T06:16:53;11.40;;;3.10;;
67861;SDS011;54665;51.462;6.698;2023-04-25T06:19:18;9.30;;;2.67;;
67861;SDS011;54665;51.462;6.698;2023-04-25T06:21:44;11.00;;;2.63;;
67861;SDS011;54665;51.462;6.698;2023-04-25T06:24:09;10.17;;;2.60;;
67861;SDS011;54665;51.462;6.698;2023-04-25T06:26:35;9.20;;;2.70;;
67861;SDS011;54665;51.462;6.698;2023-04-25T06:29:02;9.30;;;2.40;;
67861;SDS011;54665;51.462;6.698;2023-04-25T06:31:27;7.30;;;1.90;;
67861;SDS011;54665;51.462;6.698;2023-04-25T06:33:55;5.40;;;1.70;;
67861;SDS011;54665;51.462;6.698;2023-04-25T06:36:22;6.57;;;2.30;;
67861;SDS011;54665;51.462;6.698;2023-04-25T06:38:52;11.88;;;2.58;;
67861;SDS011;54665;51.462;6.698;2023-04-25T06:41:18;15.23;;;2.73;;
67861;SDS011;54665;51.462;6.698;2023-04-25T06:43:44;9.03;;;2.30;;
67861;SDS011;54665;51.462;6.698;2023-04-25T06:46:22;13.23;;;2.90;;
67861;SDS011;54665;51.462;6.698;2023-04-25T06:48:48;12.17;;;2.47;;
67861;SDS011;54665;51.462;6.698;2023-04-25T06:51:15;9.70;;;2.58;;
67861;SDS011;54665;51.462;6.698;2023-04-25T06:53:42;6.90;;;2.35;;
67861;SDS011;54665;51.462;6.698;2023-04-25T06:56:14;14.15;;;3.28;;
67861;SDS011;54665;51.462;6.698;2023-04-25T06:58:50;14.33;;;2.93;;
67861;SDS011;54665;51.462;6.698;2023-04-25T07:01:23;10.65;;;2.72;;
67861;SDS011;54665;51.462;6.698;2023-04-25T07:03:49;8.13;;;2.63;;
67861;SDS011;54665;51.462;6.698;2023-04-25T07:06:17;13.73;;;3.20;;
67861;SDS011;54665;51.462;6.698;2023-04-25T07:08:42;10.50;;;2.83;;
67861;SDS011;54665;51.462;6.698;2023-04-25T07:11:08;10.50;;;2.97;;
67861;SDS011;54665;51.462;6.698;2023-04-25T07:13:35;11.70;;;2.60;;
67861;SDS011;54665;51.462;6.698;2023-04-25T07:16:00;14.33;;;3.13;;
67861;SDS011;54665;51.462;6.698;2023-04-25T07:18:28;11.80;;;3.20;;
67861;SDS011;54665;51.462;6.698;2023-04-25T07:20:54;9.17;;;2.70;;
67861;SDS011;54665;51.462;6.698;2023-04-25T07:23:19;13.82;;;3.78;;
67861;SDS011;54665;51.462;6.698;2023-04-25T07:25:46;12.00;;;3.00;;
67861;SDS011;54665;51.462;6.698;2023-04-25T07:28:14;10.23;;;3.03;;
67861;SDS011;54665;51.462;6.698;2023-04-25T07:30:40;9.13;;;2.40;;
67861;SDS011;54665;51.462;6.698;2023-04-25T07:33:05;12.50;;;2.50;;
67861;SDS011;54665;51.462;6.698;2023-04-25T07:35:31;6.55;;;1.58;;
67861;SDS011;54665;51.462;6.698;2023-04-25T07:37:57;7.17;;;2.03;;
67861;SDS011;54665;51.462;6.698;2023-04-25T07:40:23;10.13;;;1.70;;
67861;SDS011;54665;51.462;6.698;2023-04-25T07:42:53;7.90;;;2.00;;
67861;SDS011;54665;51.462;6.698;2023-04-25T07:45:45;7.13;;;1.60;;
67861;SDS011;54665;51.462;6.698;2023-04-25T07:48:16;5.47;;;1.52;;
67861;SDS011;54665;51.462;6.698;2023-04-25T07:50:43;10.70;;;2.10;;
67861;SDS011;54665;51.462;6.698;2023-04-25T07:53:09;9.20;;;1.80;;
67861;SDS011;54665;51.462;6.698;2023-04-25T07:55:42;5.70;;;1.40;;
67861;SDS011;54665;51.462;6.698;2023-04-25T07:58:14;6.10;;;1.42;;
67861;SDS011;54665;51.462;6.698;2023-04-25T08:00:42;6.50;;;1.60;;
67861;SDS011;54665;51.462;6.698;2023-04-25T08:03:28;4.80;;;1.43;;
67861;SDS011;54665;51.462;6.698;2023-04-25T08:05:54;7.00;;;1.60;;
67861;SDS011;54665;51.462;6.698;2023-04-25T08:08:20;6.30;;;1.70;;
67861;SDS011;54665;51.462;6.698;2023-04-25T08:10:46;5.93;;;1.70;;
67861;SDS011;54665;51.462;6.698;2023-04-25T08:13:14;6.88;;;1.45;;
67861;SDS011;54665;51.462;6.698;2023-04-25T08:15:40;8.30;;;1.70;;
67861;SDS011;54665;51.462;6.698;2023-04-25T08:18:05;4.38;;;1.20;;
67861;SDS011;54665;51.462;6.698;2023-04-25T08:20:31;6.63;;;1.73;;
67861;SDS011;54665;51.462;6.698;2023-04-25T08:22:58;7.43;;;1.45;;
67861;SDS011;54665;51.462;6.698;2023-04-25T08:25:41;7.85;;;1.50;;
67861;SDS011;54665;51.462;6.698;2023-04-25T08:28:09;8.27;;;1.73;;
67861;SDS011;54665;51.462;6.698;2023-04-25T08:30:36;8.57;;;1.38;;
67861;SDS011;54665;51.462;6.698;2023-04-25T08:33:02;7.68;;;1.50;;
67861;SDS011;54665;51.462;6.698;2023-04-25T08:35:47;4.80;;;1.20;;
67861;SDS011;54665;51.462;6.698;2023-04-25T08:38:13;6.07;;;1.35;;
67861;SDS011;54665;51.462;6.698;2023-04-25T08:40:39;7.13;;;1.30;;
67861;SDS011;54665;51.462;6.698;2023-04-25T08:43:10;10.95;;;1.20;;
67861;SDS011;54665;51.462;6.698;2023-04-25T08:45:40;5.80;;;1.23;;
67861;SDS011;54665;51.462;6.698;2023-04-25T08:48:08;5.20;;;1.30;;
67861;SDS011;54665;51.462;6.698;2023-04-25T08:50:39;7.47;;;1.38;;
67861;SDS011;54665;51.462;6.698;2023-04-25T08:53:09;5.97;;;1.20;;
67861;SDS011;54665;51.462;6.698;2023-04-25T08:55:45;6.20;;;1.20;;
67861;SDS011;54665;51.462;6.698;2023-04-25T08:58:11;9.82;;;2.15;;
67861;SDS011;54665;51.462;6.698;2023-04-25T09:00:38;3.40;;;0.80;;
67861;SDS011;54665;51.462;6.698;2023-04-25T09:03:04;3.97;;;0.90;;
67861;SDS011;54665;51.462;6.698;2023-04-25T09:05:32;4.78;;;1.00;;
67861;SDS011;54665;51.462;6.698;2023-04-25T09:07:58;6.65;;;0.90;;
67861;SDS011;54665;51.462;6.698;2023-04-25T09:10:26;2.75;;;0.65;;
67861;SDS011;54665;51.462;6.698;2023-04-25T09:13:10;2.67;;;0.70;;
67861;SDS011;54665;51.462;6.698;2023-04-25T09:15:57;5.15;;;0.90;;
67861;SDS011;54665;51.462;6.698;2023-04-25T09:18:35;6.18;;;1.00;;
67861;SDS011;54665;51.462;6.698;2023-04-25T09:21:05;5.80;;;0.82;;
67861;SDS011;54665;51.462;6.698;2023-04-25T09:23:38;4.43;;;1.05;;
67861;SDS011;54665;51.462;6.698;2023-04-25T09:26:06;4.07;;;0.97;;
67861;SDS011;54665;51.462;6.698;2023-04-25T09:28:32;7.00;;;0.80;;
67861;SDS011;54665;51.462;6.698;2023-04-25T09:31:00;5.63;;;1.00;;
67861;SDS011;54665;51.462;6.698;2023-04-25T09:33:33;4.07;;;1.10;;
67861;SDS011;54665;51.462;6.698;2023-04-25T09:36:05;7.20;;;1.20;;
67861;SDS011;54665;51.462;6.698;2023-04-25T09:38:57;6.03;;;1.23;;
67861;SDS011;54665;51.462;6.698;2023-04-25T09:41:31;4.88;;;0.70;;
67861;SDS011;54665;51.462;6.698;2023-04-25T09:44:00;7.47;;;1.05;;
67861;SDS011;54665;51.462;6.698;2023-04-25T09:46:33;5.55;;;1.08;;
67861;SDS011;54665;51.462;6.698;2023-04-25T09:49:07;6.00;;;0.82;;
67861;SDS011;54665;51.462;6.698;2023-04-25T09:51:57;4.00;;;0.90;;
67861;SDS011;54665;51.462;6.698;2023-04-25T09:54:28;5.10;;;0.90;;
67861;SDS011;54665;51.462;6.698;2023-04-25T09:57:09;3.60;;;0.90;;
67861;SDS011;54665;51.462;6.698;2023-04-25T09:59:51;4.25;;;1.02;;
67861;SDS011;54665;51.462;6.698;2023-04-25T10:02:25;7.60;;;0.90;;
67861;SDS011;54665;51.462;6.698;2023-04-25T10:04:55;3.43;;;0.90;;
67861;SDS011;54665;51.462;6.698;2023-04-25T10:07:32;2.33;;;0.68;;
67861;SDS011;54665;51.462;6.698;2023-04-25T10:10:06;2.75;;;0.88;;
67861;SDS011;54665;51.462;6.698;2023-04-25T10:12:34;4.45;;;0.80;;
67861;SDS011;54665;51.462;6.698;2023-04-25T10:15:01;3.55;;;0.98;;
67861;SDS011;54665;51.462;6.698;2023-04-25T10:17:28;5.87;;;1.03;;
67861;SDS011;54665;51.462;6.698;2023-04-25T10:19:54;5.18;;;0.95;;
67861;SDS011;54665;51.462;6.698;2023-04-25T10:22:29;5.60;;;1.38;;
67861;SDS011;54665;51.462;6.698;2023-04-25T10:24:59;4.77;;;1.10;;
67861;SDS011;54665;51.462;6.698;2023-04-25T10:27:28;4.20;;;0.90;;
67861;SDS011;54665;51.462;6.698;2023-04-25T10:32:49;2.10;;;0.73;;
67861;SDS011;54665;51.462;6.698;2023-04-25T10:35:19;4.15;;;0.95;;
67861;SDS011;54665;51.462;6.698;2023-04-25T10:37:56;4.20;;;0.77;;
67861;SDS011;54665;51.462;6.698;2023-04-25T10:40:28;3.97;;;1.05;;
67861;SDS011;54665;51.462;6.698;2023-04-25T10:42:54;2.50;;;0.70;;
67861;SDS011;54665;51.462;6.698;2023-04-25T10:45:21;6.40;;;1.93;;
67861;SDS011;54665;51.462;6.698;2023-04-25T10:47:47;10.98;;;2.97;;
67861;SDS011;54665;51.462;6.698;2023-04-25T10:50:14;2.40;;;1.00;;
67861;SDS011;54665;51.462;6.698;2023-04-25T10:52:41;9.52;;;2.35;;
67861;SDS011;54665;51.462;6.698;2023-04-25T10:55:07;6.30;;;2.30;;
67861;SDS011;54665;51.462;6.698;2023-04-25T10:57:36;12.15;;;3.97;;
67861;SDS011;54665;51.462;6.698;2023-04-25T11:02:30;2.97;;;0.80;;
67861;SDS011;54665;51.462;6.698;2023-04-25T11:04:55;7.30;;;2.15;;
67861;SDS011;54665;51.462;6.698;2023-04-25T11:07:37;5.73;;;1.73;;
67861;SDS011;54665;51.462;6.698;2023-04-25T11:10:07;3.28;;;0.90;;
67861;SDS011;54665;51.462;6.698;2023-04-25T11:12:33;3.22;;;0.88;;
67861;SDS011;54665;51.462;6.698;2023-04-25T11:15:05;3.97;;;0.97;;
67861;SDS011;54665;51.462;6.698;2023-04-25T11:17:32;6.25;;;1.40;;
67861;SDS011;54665;51.462;6.698;2023-04-25T11:19:58;7.47;;;1.70;;
67861;SDS011;54665;51.462;6.698;2023-04-25T11:22:24;6.30;;;1.80;;
67861;SDS011;54665;51.462;6.698;2023-04-25T11:24:52;7.03;;;1.30;;
67861;SDS011;54665;51.462;6.698;2023-04-25T11:27:17;4.23;;;1.30;;
67861;SDS011;54665;51.462;6.698;2023-04-25T11:29:43;4.85;;;1.42;;
67861;SDS011;54665;51.462;6.698;2023-04-25T11:32:08;5.17;;;1.30;;
67861;SDS011;54665;51.462;6.698;2023-04-25T11:34:34;6.90;;;1.77;;
67861;SDS011;54665;51.462;6.698;2023-04-25T11:37:00;4.30;;;1.20;;
67861;SDS011;54665;51.462;6.698;2023-04-25T11:39:27;3.92;;;1.10;;
67861;SDS011;54665;51.462;6.698;2023-04-25T11:41:53;4.87;;;1.50;;
67861;SDS011;54665;51.462;6.698;2023-04-25T11:44:19;9.57;;;1.60;;
67861;SDS011;54665;51.462;6.698;2023-04-25T11:46:45;7.20;;;1.52;;
67861;SDS011;54665;51.462;6.698;2023-04-25T11:49:11;8.20;;;1.50;;
67861;SDS011;54665;51.462;6.698;2023-04-25T11:51:38;5.50;;;1.40;;
67861;SDS011;54665;51.462;6.698;2023-04-25T11:54:08;6.23;;;1.30;;
67861;SDS011;54665;51.462;6.698;2023-04-25T11:56:33;5.47;;;1.30;;
67861;SDS011;54665;51.462;6.698;2023-04-25T11:59:00;5.83;;;1.80;;
67861;SDS011;54665;51.462;6.698;2023-04-25T12:03:53;4.65;;;1.20;;
67861;SDS011;54665;51.462;6.698;2023-04-25T12:06:18;5.10;;;1.20;;
67861;SDS011;54665;51.462;6.698;2023-04-25T12:08:59;9.43;;;1.40;;
67861;SDS011;54665;51.462;6.698;2023-04-25T12:11:26;3.92;;;1.50;;
67861;SDS011;54665;51.462;6.698;2023-04-25T12:13:51;5.33;;;1.40;;
67861;SDS011;54665;51.462;6.698;2023-04-25T12:16:18;4.28;;;1.38;;
67861;SDS011;54665;51.462;6.698;2023-04-25T12:18:43;6.57;;;1.60;;
67861;SDS011;54665;51.462;6.698;2023-04-25T12:21:09;5.03;;;1.10;;
67861;SDS011;54665;51.462;6.698;2023-04-25T12:23:34;6.03;;;1.35;;
67861;SDS011;54665;51.462;6.698;2023-04-25T12:26:04;5.53;;;1.50;;
67861;SDS011;54665;51.462;6.698;2023-04-25T12:28:32;5.88;;;1.30;;
67861;SDS011;54665;51.462;6.698;2023-04-25T12:31:05;2.22;;;0.70;;
67861;SDS011;54665;51.462;6.698;2023-04-25T12:35:58;5.97;;;1.10;;
67861;SDS011;54665;51.462;6.698;2023-04-25T12:38:26;3.87;;;0.90;;
67861;SDS011;54665;51.462;6.698;2023-04-25T12:40:52;5.60;;;1.00;;
67861;SDS011;54665;51.462;6.698;2023-04-25T12:43:18;6.15;;;0.93;;
67861;SDS011;54665;51.462;6.698;2023-04-25T12:45:44;5.20;;;1.23;;
67861;SDS011;54665;51.462;6.698;2023-04-25T12:48:12;4.20;;;1.00;;
67861;SDS011;54665;51.462;6.698;2023-04-25T12:50:37;4.07;;;0.90;;
67861;SDS011;54665;51.462;6.698;2023-04-25T12:53:02;2.37;;;0.70;;
67861;SDS011;54665;51.462;6.698;2023-04-25T12:55:28;3.05;;;0.60;;
67861;SDS011;54665;51.462;6.698;2023-04-25T12:57:54;3.33;;;0.70;;
67861;SDS011;54665;51.462;6.698;2023-04-25T13:00:20;2.10;;;0.70;;
67861;SDS011;54665;51.462;6.698;2023-04-25T13:02:45;3.17;;;0.60;;
67861;SDS011;54665;51.462;6.698;2023-04-25T13:05:14;3.28;;;0.80;;
67861;SDS011;54665;51.462;6.698;2023-04-25T13:07:39;3.77;;;0.77;;
67861;SDS011;54665;51.462;6.698;2023-04-25T13:10:06;1.90;;;0.63;;
67861;SDS011;54665;51.462;6.698;2023-04-25T13:12:32;4.93;;;0.80;;
67861;SDS011;54665;51.462;6.698;2023-04-25T13:14:58;2.93;;;0.93;;
67861;SDS011;54665;51.462;6.698;2023-04-25T13:17:23;2.25;;;0.70;;
67861;SDS011;54665;51.462;6.698;2023-04-25T13:19:48;3.37;;;0.80;;
67861;SDS011;54665;51.462;6.698;2023-04-25T13:22:14;3.00;;;0.90;;
67861;SDS011;54665;51.462;6.698;2023-04-25T13:24:41;2.05;;;0.70;;
67861;SDS011;54665;51.462;6.698;2023-04-25T13:27:07;4.27;;;1.10;;
67861;SDS011;54665;51.462;6.698;2023-04-25T13:29:32;4.07;;;1.20;;
67861;SDS011;54665;51.462;6.698;2023-04-25T13:32:00;4.55;;;1.10;;
67861;SDS011;54665;51.462;6.698;2023-04-25T13:34:26;4.87;;;1.00;;
67861;SDS011;54665;51.462;6.698;2023-04-25T13:36:51;4.53;;;0.70;;
67861;SDS011;54665;51.462;6.698;2023-04-25T13:39:17;5.80;;;1.10;;
67861;SDS011;54665;51.462;6.698;2023-04-25T13:41:42;3.10;;;0.70;;
67861;SDS011;54665;51.462;6.698;2023-04-25T13:44:08;3.20;;;0.73;;
67861;SDS011;54665;51.462;6.698;2023-04-25T13:46:33;6.73;;;1.03;;
67861;SDS011;54665;51.462;6.698;2023-04-25T13:48:59;2.80;;;0.80;;
67861;SDS011;54665;51.462;6.698;2023-04-25T13:51:24;3.43;;;0.90;;
67861;SDS011;54665;51.462;6.698;2023-04-25T13:53:50;3.20;;;0.70;;
67861;SDS011;54665;51.462;6.698;2023-04-25T13:56:16;2.57;;;0.63;;
67861;SDS011;54665;51.462;6.698;2023-04-25T13:58:41;3.95;;;0.70;;
67861;SDS011;54665;51.462;6.698;2023-04-25T14:01:07;4.43;;;0.60;;
67861;SDS011;54665;51.462;6.698;2023-04-25T14:03:32;1.73;;;0.80;;
67861;SDS011;54665;51.462;6.698;2023-04-25T14:05:58;3.17;;;0.80;;
67861;SDS011;54665;51.462;6.698;2023-04-25T14:08:23;3.93;;;0.80;;
67861;SDS011;54665;51.462;6.698;2023-04-25T14:10:48;2.03;;;0.50;;
67861;SDS011;54665;51.462;6.698;2023-04-25T14:13:14;2.97;;;0.60;;
67861;SDS011;54665;51.462;6.698;2023-04-25T14:15:40;4.25;;;0.85;;
67861;SDS011;54665;51.462;6.698;2023-04-25T14:18:05;3.47;;;0.60;;
67861;SDS011;54665;51.462;6.698;2023-04-25T14:20:30;4.53;;;0.50;;
67861;SDS011;54665;51.462;6.698;2023-04-25T14:22:56;1.20;;;0.40;;
67861;SDS011;54665;51.462;6.698;2023-04-25T14:25:23;2.60;;;0.40;;
67861;SDS011;54665;51.462;6.698;2023-04-25T14:27:49;3.58;;;0.50;;
67861;SDS011;54665;51.462;6.698;2023-04-25T14:30:16;2.45;;;0.47;;
67861;SDS011;54665;51.462;6.698;2023-04-25T14:32:43;1.98;;;0.60;;
67861;SDS011;54665;51.462;6.698;2023-04-25T14:35:09;2.50;;;0.40;;
67861;SDS011;54665;51.462;6.698;2023-04-25T14:37:35;3.40;;;0.52;;
67861;SDS011;54665;51.462;6.698;2023-04-25T14:40:00;3.60;;;0.60;;
67861;SDS011;54665;51.462;6.698;2023-04-25T14:42:25;4.43;;;0.73;;
67861;SDS011;54665;51.462;6.698;2023-04-25T14:44:51;3.00;;;0.50;;
67861;SDS011;54665;51.462;6.698;2023-04-25T14:47:16;2.77;;;0.70;;
67861;SDS011;54665;51.462;6.698;2023-04-25T14:49:42;2.43;;;0.60;;
67861;SDS011;54665;51.462;6.698;2023-04-25T14:52:07;4.70;;;0.50;;
67861;SDS011;54665;51.462;6.698;2023-04-25T14:54:33;2.20;;;0.70;;
67861;SDS011;54665;51.462;6.698;2023-04-25T14:56:58;3.20;;;1.00;;
67861;SDS011;54665;51.462;6.698;2023-04-25T14:59:23;1.97;;;0.53;;
67861;SDS011;54665;51.462;6.698;2023-04-25T15:01:50;2.13;;;0.60;;
67861;SDS011;54665;51.462;6.698;2023-04-25T15:04:15;3.23;;;0.60;;